This is the latest recevied weather packets stored in our database for station/object VE3DVC. If no packets are shown the sender has not sent any weather packets the latest 10 day(s).
| Time | Temp. | Humidity | Pressure | Rain* | Wind** | Luminosity | Snow |
|---|---|---|---|---|---|---|---|
| 1777298714 | 13.89° C | 70% | 1022.4 hPa | 0 mm | - | - | - |
| 1777297627 | 13.33° C | 71% | 1022.5 hPa | 0 mm | - | - | - |
| 1777296907 | 13.33° C | 71% | 1022.7 hPa | 0 mm | - | - | - |
| 1777296187 | 13.33° C | 74% | 1022.4 hPa | 0 mm | - | - | - |
| 1777295468 | 12.22° C | 76% | 1022.4 hPa | 0 mm | - | - | - |
| 1777294747 | 11.67° C | 80% | 1022.6 hPa | 0 mm | - | - | - |
| 1777294027 | 10° C | 85% | 1022.6 hPa | 0 mm | - | - | - |
| 1777293308 | 8.89° C | 89% | 1022.8 hPa | 0 mm | - | - | - |
| 1777291917 | 7.78° C | 88% | 1022.9 hPa | 0 mm | - | - | - |
| 1777291198 | 6.67° C | 87% | 1022.7 hPa | 0 mm | - | - | - |
| 1777290478 | 6.11° C | 87% | 1022.7 hPa | 0 mm | - | - | - |
| 1777289758 | 5.56° C | 87% | 1022.6 hPa | 0 mm | - | - | - |
| 1777289038 | 5.56° C | 86% | 1022.6 hPa | 0 mm | - | - | - |
| 1777288317 | 5° C | 85% | 1022.4 hPa | 0 mm | - | - | - |
| 1777287598 | 5° C | 84% | 1022.5 hPa | 0 mm | - | - | - |
| 1777286878 | 5° C | 84% | 1022.4 hPa | 0 mm | - | - | - |
| 1777286158 | 5° C | 83% | 1022.2 hPa | 0 mm | - | - | - |
| 1777285437 | 5° C | 83% | 1022.1 hPa | 0 mm | - | - | - |
| 1777283605 | 5.56° C | 81% | 1022 hPa | 0 mm | - | - | - |
| 1777282885 | 5.56° C | 79% | 1021.8 hPa | 0 mm | - | - | - |
| 1777282165 | 5.56° C | 79% | 1021.8 hPa | 0 mm | - | - | - |
| 1777281445 | 5.56° C | 79% | 1021.6 hPa | 0 mm | - | - | - |
| 1777280724 | 5.56° C | 78% | 1021.6 hPa | 0 mm | - | - | - |
| 1777280004 | 6.11° C | 79% | 1021.6 hPa | 0 mm | - | - | - |
| 1777279284 | 6.11° C | 79% | 1021.5 hPa | 0 mm | - | - | - |
* Rain latest hour (hover to see other rain measurements)
** Current wind speed in m/s (hover to see current wind gust speed)